sensor_id;sensor_type;location;lat;lon;timestamp;P1;durP1;ratioP1;P2;durP2;ratioP2
64560;SDS011;50960;46.838;16.838;2024-03-02T00:00:05;33.95;;;30.08;;
64560;SDS011;50960;46.838;16.838;2024-03-02T00:02:46;32.38;;;28.92;;
64560;SDS011;50960;46.838;16.838;2024-03-02T00:05:14;33.33;;;29.73;;
64560;SDS011;50960;46.838;16.838;2024-03-02T00:07:45;34.97;;;31.17;;
64560;SDS011;50960;46.838;16.838;2024-03-02T00:10:25;32.58;;;28.98;;
64560;SDS011;50960;46.838;16.838;2024-03-02T00:13:02;33.63;;;30.13;;
64560;SDS011;50960;46.838;16.838;2024-03-02T00:20:28;34.28;;;30.55;;
64560;SDS011;50960;46.838;16.838;2024-03-02T00:23:01;35.60;;;31.75;;
64560;SDS011;50960;46.838;16.838;2024-03-02T00:25:45;32.95;;;29.45;;
64560;SDS011;50960;46.838;16.838;2024-03-02T00:33:45;35.78;;;31.77;;
64560;SDS011;50960;46.838;16.838;2024-03-02T00:36:18;33.85;;;30.30;;
64560;SDS011;50960;46.838;16.838;2024-03-02T00:38:50;31.17;;;28.00;;
64560;SDS011;50960;46.838;16.838;2024-03-02T00:41:26;33.35;;;29.30;;
64560;SDS011;50960;46.838;16.838;2024-03-02T00:44:01;32.67;;;29.13;;
64560;SDS011;50960;46.838;16.838;2024-03-02T00:46:30;33.60;;;28.75;;
64560;SDS011;50960;46.838;16.838;2024-03-02T00:49:00;33.85;;;29.05;;
64560;SDS011;50960;46.838;16.838;2024-03-02T00:51:30;32.70;;;28.42;;
64560;SDS011;50960;46.838;16.838;2024-03-02T00:53:59;32.05;;;28.08;;
64560;SDS011;50960;46.838;16.838;2024-03-02T00:56:26;33.75;;;29.38;;
64560;SDS011;50960;46.838;16.838;2024-03-02T00:58:53;33.13;;;28.50;;
64560;SDS011;50960;46.838;16.838;2024-03-02T01:01:19;34.80;;;29.05;;
64560;SDS011;50960;46.838;16.838;2024-03-02T01:03:45;34.92;;;30.27;;
64560;SDS011;50960;46.838;16.838;2024-03-02T01:06:12;34.17;;;28.52;;
64560;SDS011;50960;46.838;16.838;2024-03-02T01:08:38;34.40;;;28.60;;
64560;SDS011;50960;46.838;16.838;2024-03-02T01:11:05;37.22;;;30.65;;
64560;SDS011;50960;46.838;16.838;2024-03-02T01:13:31;32.58;;;28.33;;
64560;SDS011;50960;46.838;16.838;2024-03-02T01:15:58;35.67;;;28.83;;
64560;SDS011;50960;46.838;16.838;2024-03-02T01:18:25;36.58;;;29.80;;
64560;SDS011;50960;46.838;16.838;2024-03-02T01:20:51;36.50;;;29.13;;
64560;SDS011;50960;46.838;16.838;2024-03-02T01:23:18;38.58;;;30.63;;
64560;SDS011;50960;46.838;16.838;2024-03-02T01:25:47;40.17;;;31.40;;
64560;SDS011;50960;46.838;16.838;2024-03-02T01:28:14;36.95;;;29.08;;
64560;SDS011;50960;46.838;16.838;2024-03-02T01:30:40;37.00;;;29.10;;
64560;SDS011;50960;46.838;16.838;2024-03-02T01:33:07;37.67;;;30.52;;
64560;SDS011;50960;46.838;16.838;2024-03-02T01:35:33;36.70;;;30.08;;
64560;SDS011;50960;46.838;16.838;2024-03-02T01:38:03;35.58;;;29.55;;
64560;SDS011;50960;46.838;16.838;2024-03-02T01:40:34;37.85;;;30.35;;
64560;SDS011;50960;46.838;16.838;2024-03-02T01:43:01;37.60;;;30.08;;
64560;SDS011;50960;46.838;16.838;2024-03-02T01:45:28;40.38;;;31.23;;
64560;SDS011;50960;46.838;16.838;2024-03-02T01:47:54;38.30;;;30.45;;
64560;SDS011;50960;46.838;16.838;2024-03-02T01:50:25;35.47;;;29.42;;
64560;SDS011;50960;46.838;16.838;2024-03-02T01:52:56;37.35;;;29.65;;
64560;SDS011;50960;46.838;16.838;2024-03-02T01:55:22;38.10;;;30.38;;
64560;SDS011;50960;46.838;16.838;2024-03-02T01:57:49;36.70;;;29.35;;
64560;SDS011;50960;46.838;16.838;2024-03-02T02:00:19;36.45;;;30.05;;
64560;SDS011;50960;46.838;16.838;2024-03-02T02:02:46;39.40;;;30.67;;
64560;SDS011;50960;46.838;16.838;2024-03-02T02:05:13;38.55;;;29.92;;
64560;SDS011;50960;46.838;16.838;2024-03-02T02:07:41;39.63;;;30.33;;
64560;SDS011;50960;46.838;16.838;2024-03-02T02:10:08;36.33;;;30.13;;
64560;SDS011;50960;46.838;16.838;2024-03-02T02:12:38;34.20;;;28.52;;
64560;SDS011;50960;46.838;16.838;2024-03-02T02:15:20;36.00;;;28.95;;
64560;SDS011;50960;46.838;16.838;2024-03-02T02:17:51;36.75;;;28.75;;
64560;SDS011;50960;46.838;16.838;2024-03-02T02:20:17;35.15;;;29.75;;
64560;SDS011;50960;46.838;16.838;2024-03-02T02:23:00;34.22;;;27.67;;
64560;SDS011;50960;46.838;16.838;2024-03-02T02:25:28;35.38;;;27.90;;
64560;SDS011;50960;46.838;16.838;2024-03-02T02:27:55;34.83;;;29.48;;
64560;SDS011;50960;46.838;16.838;2024-03-02T02:30:23;35.72;;;28.65;;
64560;SDS011;50960;46.838;16.838;2024-03-02T02:32:53;36.42;;;28.50;;
64560;SDS011;50960;46.838;16.838;2024-03-02T02:35:19;34.70;;;28.60;;
64560;SDS011;50960;46.838;16.838;2024-03-02T02:37:46;34.35;;;28.27;;
64560;SDS011;50960;46.838;16.838;2024-03-02T02:40:13;33.50;;;27.80;;
64560;SDS011;50960;46.838;16.838;2024-03-02T02:42:39;34.35;;;28.33;;
64560;SDS011;50960;46.838;16.838;2024-03-02T02:45:06;33.38;;;27.98;;
64560;SDS011;50960;46.838;16.838;2024-03-02T02:47:33;34.38;;;27.92;;
64560;SDS011;50960;46.838;16.838;2024-03-02T02:50:03;33.80;;;26.80;;
64560;SDS011;50960;46.838;16.838;2024-03-02T02:52:32;34.05;;;28.15;;
64560;SDS011;50960;46.838;16.838;2024-03-02T02:55:06;35.33;;;27.73;;
64560;SDS011;50960;46.838;16.838;2024-03-02T02:57:34;33.33;;;27.23;;
64560;SDS011;50960;46.838;16.838;2024-03-02T03:00:04;33.35;;;27.27;;
64560;SDS011;50960;46.838;16.838;2024-03-02T03:02:40;32.33;;;27.65;;
64560;SDS011;50960;46.838;16.838;2024-03-02T03:05:13;35.25;;;28.17;;
64560;SDS011;50960;46.838;16.838;2024-03-02T03:07:40;34.33;;;27.65;;
64560;SDS011;50960;46.838;16.838;2024-03-02T03:10:07;33.00;;;27.25;;
64560;SDS011;50960;46.838;16.838;2024-03-02T03:12:34;31.88;;;26.75;;
64560;SDS011;50960;46.838;16.838;2024-03-02T03:15:01;32.45;;;26.35;;
64560;SDS011;50960;46.838;16.838;2024-03-02T03:17:28;33.90;;;27.95;;
64560;SDS011;50960;46.838;16.838;2024-03-02T03:19:54;34.67;;;27.60;;
64560;SDS011;50960;46.838;16.838;2024-03-02T03:22:20;33.17;;;27.38;;
64560;SDS011;50960;46.838;16.838;2024-03-02T03:24:47;33.88;;;27.17;;
64560;SDS011;50960;46.838;16.838;2024-03-02T03:27:13;32.15;;;26.30;;
64560;SDS011;50960;46.838;16.838;2024-03-02T03:29:39;32.30;;;26.58;;
64560;SDS011;50960;46.838;16.838;2024-03-02T03:32:05;30.75;;;26.25;;
64560;SDS011;50960;46.838;16.838;2024-03-02T03:34:32;32.20;;;27.73;;
64560;SDS011;50960;46.838;16.838;2024-03-02T03:36:59;34.20;;;27.60;;
64560;SDS011;50960;46.838;16.838;2024-03-02T03:39:25;33.72;;;27.25;;
64560;SDS011;50960;46.838;16.838;2024-03-02T03:41:51;33.40;;;27.90;;
64560;SDS011;50960;46.838;16.838;2024-03-02T03:44:18;34.53;;;28.35;;
64560;SDS011;50960;46.838;16.838;2024-03-02T03:46:44;32.60;;;27.00;;
64560;SDS011;50960;46.838;16.838;2024-03-02T03:49:10;32.78;;;27.08;;
64560;SDS011;50960;46.838;16.838;2024-03-02T03:51:36;30.58;;;26.13;;
64560;SDS011;50960;46.838;16.838;2024-03-02T03:54:02;33.25;;;27.10;;
64560;SDS011;50960;46.838;16.838;2024-03-02T03:56:29;31.60;;;25.40;;
64560;SDS011;50960;46.838;16.838;2024-03-02T03:58:55;31.98;;;26.13;;
64560;SDS011;50960;46.838;16.838;2024-03-02T04:01:21;33.05;;;25.90;;
64560;SDS011;50960;46.838;16.838;2024-03-02T04:03:48;30.17;;;25.65;;
64560;SDS011;50960;46.838;16.838;2024-03-02T04:06:14;29.55;;;25.27;;
64560;SDS011;50960;46.838;16.838;2024-03-02T04:08:42;32.13;;;26.05;;
64560;SDS011;50960;46.838;16.838;2024-03-02T04:11:09;31.77;;;26.42;;
64560;SDS011;50960;46.838;16.838;2024-03-02T04:13:35;30.67;;;25.30;;
64560;SDS011;50960;46.838;16.838;2024-03-02T04:16:02;30.75;;;26.55;;
64560;SDS011;50960;46.838;16.838;2024-03-02T04:18:29;34.38;;;24.98;;
64560;SDS011;50960;46.838;16.838;2024-03-02T04:20:56;31.80;;;26.33;;
64560;SDS011;50960;46.838;16.838;2024-03-02T04:23:23;34.83;;;27.58;;
64560;SDS011;50960;46.838;16.838;2024-03-02T04:25:49;33.90;;;27.42;;
64560;SDS011;50960;46.838;16.838;2024-03-02T04:28:16;33.55;;;26.60;;
64560;SDS011;50960;46.838;16.838;2024-03-02T04:30:42;33.40;;;27.90;;
64560;SDS011;50960;46.838;16.838;2024-03-02T04:33:08;30.73;;;25.38;;
64560;SDS011;50960;46.838;16.838;2024-03-02T04:35:36;30.00;;;25.30;;
64560;SDS011;50960;46.838;16.838;2024-03-02T04:38:02;30.38;;;25.00;;
64560;SDS011;50960;46.838;16.838;2024-03-02T04:40:28;32.45;;;27.17;;
64560;SDS011;50960;46.838;16.838;2024-03-02T04:42:55;30.95;;;25.65;;
64560;SDS011;50960;46.838;16.838;2024-03-02T04:45:21;32.63;;;26.63;;
64560;SDS011;50960;46.838;16.838;2024-03-02T04:47:47;34.33;;;26.42;;
64560;SDS011;50960;46.838;16.838;2024-03-02T04:50:13;33.38;;;26.88;;
64560;SDS011;50960;46.838;16.838;2024-03-02T04:52:40;32.20;;;26.00;;
64560;SDS011;50960;46.838;16.838;2024-03-02T04:55:06;31.00;;;26.55;;
64560;SDS011;50960;46.838;16.838;2024-03-02T04:57:35;30.67;;;25.85;;
64560;SDS011;50960;46.838;16.838;2024-03-02T05:00:01;31.10;;;25.27;;
64560;SDS011;50960;46.838;16.838;2024-03-02T05:02:32;33.08;;;26.02;;
64560;SDS011;50960;46.838;16.838;2024-03-02T05:04:58;31.42;;;25.83;;
64560;SDS011;50960;46.838;16.838;2024-03-02T05:07:25;32.10;;;25.15;;
64560;SDS011;50960;46.838;16.838;2024-03-02T05:09:51;33.50;;;25.92;;
64560;SDS011;50960;46.838;16.838;2024-03-02T05:12:17;30.60;;;25.80;;
64560;SDS011;50960;46.838;16.838;2024-03-02T05:15:02;29.65;;;24.52;;
64560;SDS011;50960;46.838;16.838;2024-03-02T05:17:29;29.13;;;25.23;;
64560;SDS011;50960;46.838;16.838;2024-03-02T05:19:55;32.97;;;26.25;;
64560;SDS011;50960;46.838;16.838;2024-03-02T05:22:22;32.05;;;25.60;;
64560;SDS011;50960;46.838;16.838;2024-03-02T05:24:48;29.88;;;24.67;;
64560;SDS011;50960;46.838;16.838;2024-03-02T05:27:14;30.42;;;25.00;;
64560;SDS011;50960;46.838;16.838;2024-03-02T05:29:41;30.75;;;25.55;;
64560;SDS011;50960;46.838;16.838;2024-03-02T05:32:07;28.73;;;24.48;;
64560;SDS011;50960;46.838;16.838;2024-03-02T05:34:34;30.95;;;24.75;;
64560;SDS011;50960;46.838;16.838;2024-03-02T05:37:01;30.33;;;24.77;;
64560;SDS011;50960;46.838;16.838;2024-03-02T05:39:27;31.17;;;24.95;;
64560;SDS011;50960;46.838;16.838;2024-03-02T05:41:54;30.00;;;24.98;;
64560;SDS011;50960;46.838;16.838;2024-03-02T05:44:20;29.30;;;24.77;;
64560;SDS011;50960;46.838;16.838;2024-03-02T05:46:46;28.85;;;25.00;;
64560;SDS011;50960;46.838;16.838;2024-03-02T05:49:12;29.95;;;25.15;;
64560;SDS011;50960;46.838;16.838;2024-03-02T05:51:39;28.10;;;24.27;;
64560;SDS011;50960;46.838;16.838;2024-03-02T05:54:05;28.83;;;24.85;;
64560;SDS011;50960;46.838;16.838;2024-03-02T05:56:31;27.80;;;24.73;;
64560;SDS011;50960;46.838;16.838;2024-03-02T05:58:58;30.33;;;25.98;;
64560;SDS011;50960;46.838;16.838;2024-03-02T06:01:43;29.92;;;24.83;;
64560;SDS011;50960;46.838;16.838;2024-03-02T06:04:10;30.05;;;25.40;;
64560;SDS011;50960;46.838;16.838;2024-03-02T06:06:36;31.58;;;25.60;;
64560;SDS011;50960;46.838;16.838;2024-03-02T06:09:03;29.88;;;24.42;;
64560;SDS011;50960;46.838;16.838;2024-03-02T06:11:33;31.40;;;25.40;;
64560;SDS011;50960;46.838;16.838;2024-03-02T06:14:00;31.00;;;23.98;;
64560;SDS011;50960;46.838;16.838;2024-03-02T06:16:27;31.42;;;24.88;;
64560;SDS011;50960;46.838;16.838;2024-03-02T06:18:53;30.90;;;24.63;;
64560;SDS011;50960;46.838;16.838;2024-03-02T06:21:20;31.67;;;24.02;;
64560;SDS011;50960;46.838;16.838;2024-03-02T06:23:46;30.05;;;23.92;;
64560;SDS011;50960;46.838;16.838;2024-03-02T06:26:13;27.85;;;22.77;;
64560;SDS011;50960;46.838;16.838;2024-03-02T06:28:39;28.63;;;23.70;;
64560;SDS011;50960;46.838;16.838;2024-03-02T06:31:06;31.10;;;25.00;;
64560;SDS011;50960;46.838;16.838;2024-03-02T06:33:32;29.77;;;24.05;;
64560;SDS011;50960;46.838;16.838;2024-03-02T06:35:59;29.83;;;23.85;;
64560;SDS011;50960;46.838;16.838;2024-03-02T06:38:25;29.85;;;23.88;;
64560;SDS011;50960;46.838;16.838;2024-03-02T06:40:52;28.88;;;23.52;;
64560;SDS011;50960;46.838;16.838;2024-03-02T06:43:18;29.88;;;24.35;;
64560;SDS011;50960;46.838;16.838;2024-03-02T06:45:49;31.35;;;24.25;;
64560;SDS011;50960;46.838;16.838;2024-03-02T06:48:16;28.52;;;23.40;;
64560;SDS011;50960;46.838;16.838;2024-03-02T06:50:49;31.55;;;25.10;;
64560;SDS011;50960;46.838;16.838;2024-03-02T06:53:16;30.13;;;23.30;;
64560;SDS011;50960;46.838;16.838;2024-03-02T06:55:43;30.02;;;23.45;;
64560;SDS011;50960;46.838;16.838;2024-03-02T06:58:11;30.73;;;22.90;;
64560;SDS011;50960;46.838;16.838;2024-03-02T07:00:37;30.27;;;22.70;;
64560;SDS011;50960;46.838;16.838;2024-03-02T07:03:04;30.30;;;24.00;;
64560;SDS011;50960;46.838;16.838;2024-03-02T07:05:30;32.30;;;23.48;;
64560;SDS011;50960;46.838;16.838;2024-03-02T07:07:57;34.25;;;24.55;;
64560;SDS011;50960;46.838;16.838;2024-03-02T07:10:23;28.80;;;22.92;;
64560;SDS011;50960;46.838;16.838;2024-03-02T07:12:50;34.17;;;24.05;;
64560;SDS011;50960;46.838;16.838;2024-03-02T07:15:16;33.20;;;24.00;;
64560;SDS011;50960;46.838;16.838;2024-03-02T07:17:52;30.38;;;23.45;;
64560;SDS011;50960;46.838;16.838;2024-03-02T07:20:18;30.38;;;22.33;;
64560;SDS011;50960;46.838;16.838;2024-03-02T07:22:46;30.67;;;23.02;;
64560;SDS011;50960;46.838;16.838;2024-03-02T07:25:12;29.13;;;21.48;;
64560;SDS011;50960;46.838;16.838;2024-03-02T07:27:39;29.95;;;21.52;;
64560;SDS011;50960;46.838;16.838;2024-03-02T07:30:06;28.17;;;20.90;;
64560;SDS011;50960;46.838;16.838;2024-03-02T07:32:32;27.77;;;21.20;;
64560;SDS011;50960;46.838;16.838;2024-03-02T07:34:59;30.27;;;22.17;;
64560;SDS011;50960;46.838;16.838;2024-03-02T07:37:26;28.33;;;21.48;;
64560;SDS011;50960;46.838;16.838;2024-03-02T07:39:53;27.33;;;20.83;;
64560;SDS011;50960;46.838;16.838;2024-03-02T07:42:20;26.45;;;20.67;;
64560;SDS011;50960;46.838;16.838;2024-03-02T07:44:46;27.92;;;21.30;;
64560;SDS011;50960;46.838;16.838;2024-03-02T07:47:13;29.48;;;22.25;;
64560;SDS011;50960;46.838;16.838;2024-03-02T07:49:40;31.73;;;22.75;;
64560;SDS011;50960;46.838;16.838;2024-03-02T07:52:06;28.88;;;21.38;;
64560;SDS011;50960;46.838;16.838;2024-03-02T07:54:33;30.23;;;21.75;;
64560;SDS011;50960;46.838;16.838;2024-03-02T07:57:00;26.77;;;20.10;;
64560;SDS011;50960;46.838;16.838;2024-03-02T07:59:26;26.98;;;20.67;;
64560;SDS011;50960;46.838;16.838;2024-03-02T08:01:53;27.92;;;20.48;;
64560;SDS011;50960;46.838;16.838;2024-03-02T08:04:20;26.45;;;19.83;;
64560;SDS011;50960;46.838;16.838;2024-03-02T08:06:47;26.30;;;19.95;;
64560;SDS011;50960;46.838;16.838;2024-03-02T08:09:13;23.42;;;18.58;;
64560;SDS011;50960;46.838;16.838;2024-03-02T08:11:40;24.48;;;19.52;;
64560;SDS011;50960;46.838;16.838;2024-03-02T08:14:06;29.52;;;21.65;;
64560;SDS011;50960;46.838;16.838;2024-03-02T08:16:33;32.00;;;23.17;;
64560;SDS011;50960;46.838;16.838;2024-03-02T08:18:59;30.98;;;22.10;;
64560;SDS011;50960;46.838;16.838;2024-03-02T08:21:26;32.53;;;23.48;;
64560;SDS011;50960;46.838;16.838;2024-03-02T08:23:56;29.88;;;22.40;;
64560;SDS011;50960;46.838;16.838;2024-03-02T08:26:23;32.75;;;22.73;;
64560;SDS011;50960;46.838;16.838;2024-03-02T08:28:50;31.67;;;22.60;;
64560;SDS011;50960;46.838;16.838;2024-03-02T08:31:17;27.73;;;22.02;;
64560;SDS011;50960;46.838;16.838;2024-03-02T08:33:43;29.85;;;22.60;;
64560;SDS011;50960;46.838;16.838;2024-03-02T08:36:10;29.95;;;22.33;;
64560;SDS011;50960;46.838;16.838;2024-03-02T08:38:36;27.27;;;21.25;;
64560;SDS011;50960;46.838;16.838;2024-03-02T08:41:03;28.15;;;21.15;;
64560;SDS011;50960;46.838;16.838;2024-03-02T08:43:30;29.50;;;22.55;;
64560;SDS011;50960;46.838;16.838;2024-03-02T08:45:57;30.63;;;22.85;;
64560;SDS011;50960;46.838;16.838;2024-03-02T08:48:23;29.30;;;22.42;;
64560;SDS011;50960;46.838;16.838;2024-03-02T08:50:49;28.73;;;23.08;;
64560;SDS011;50960;46.838;16.838;2024-03-02T08:53:16;29.90;;;22.63;;
64560;SDS011;50960;46.838;16.838;2024-03-02T08:55:46;29.80;;;24.02;;
64560;SDS011;50960;46.838;16.838;2024-03-02T08:58:13;31.73;;;24.02;;
64560;SDS011;50960;46.838;16.838;2024-03-02T09:00:40;34.92;;;25.70;;
64560;SDS011;50960;46.838;16.838;2024-03-02T09:03:06;39.78;;;29.80;;
64560;SDS011;50960;46.838;16.838;2024-03-02T09:05:33;37.85;;;29.15;;
64560;SDS011;50960;46.838;16.838;2024-03-02T09:08:00;37.08;;;28.25;;
64560;SDS011;50960;46.838;16.838;2024-03-02T09:10:26;33.85;;;27.40;;
64560;SDS011;50960;46.838;16.838;2024-03-02T09:12:52;33.53;;;25.98;;
64560;SDS011;50960;46.838;16.838;2024-03-02T09:15:19;34.08;;;26.15;;
64560;SDS011;50960;46.838;16.838;2024-03-02T09:17:45;34.25;;;26.63;;
64560;SDS011;50960;46.838;16.838;2024-03-02T09:20:12;34.65;;;26.10;;
64560;SDS011;50960;46.838;16.838;2024-03-02T09:22:39;36.80;;;28.13;;
64560;SDS011;50960;46.838;16.838;2024-03-02T09:25:07;34.15;;;26.20;;
64560;SDS011;50960;46.838;16.838;2024-03-02T09:27:37;32.88;;;27.55;;
64560;SDS011;50960;46.838;16.838;2024-03-02T09:30:07;34.97;;;28.65;;
64560;SDS011;50960;46.838;16.838;2024-03-02T09:32:36;39.22;;;30.27;;
64560;SDS011;50960;46.838;16.838;2024-03-02T09:35:02;31.73;;;25.45;;
64560;SDS011;50960;46.838;16.838;2024-03-02T09:37:30;29.00;;;23.70;;
64560;SDS011;50960;46.838;16.838;2024-03-02T09:39:56;30.88;;;22.92;;
64560;SDS011;50960;46.838;16.838;2024-03-02T09:42:23;28.25;;;22.13;;
64560;SDS011;50960;46.838;16.838;2024-03-02T09:44:54;28.70;;;22.33;;
64560;SDS011;50960;46.838;16.838;2024-03-02T09:47:21;28.27;;;22.88;;
64560;SDS011;50960;46.838;16.838;2024-03-02T09:49:47;27.95;;;22.88;;
64560;SDS011;50960;46.838;16.838;2024-03-02T09:52:14;28.20;;;22.52;;
64560;SDS011;50960;46.838;16.838;2024-03-02T09:54:41;26.58;;;21.95;;
64560;SDS011;50960;46.838;16.838;2024-03-02T09:57:08;26.23;;;21.52;;
64560;SDS011;50960;46.838;16.838;2024-03-02T09:59:35;27.15;;;22.25;;
64560;SDS011;50960;46.838;16.838;2024-03-02T10:02:02;27.70;;;22.35;;
64560;SDS011;50960;46.838;16.838;2024-03-02T10:04:29;27.13;;;21.52;;
64560;SDS011;50960;46.838;16.838;2024-03-02T10:07:14;30.02;;;22.05;;
64560;SDS011;50960;46.838;16.838;2024-03-02T10:09:41;27.30;;;22.27;;
64560;SDS011;50960;46.838;16.838;2024-03-02T10:12:08;30.38;;;22.50;;
64560;SDS011;50960;46.838;16.838;2024-03-02T10:14:37;32.47;;;24.23;;
64560;SDS011;50960;46.838;16.838;2024-03-02T10:17:07;31.45;;;24.27;;
64560;SDS011;50960;46.838;16.838;2024-03-02T10:19:33;29.08;;;22.77;;
64560;SDS011;50960;46.838;16.838;2024-03-02T10:22:01;30.63;;;23.48;;
64560;SDS011;50960;46.838;16.838;2024-03-02T10:24:34;29.95;;;24.58;;
64560;SDS011;50960;46.838;16.838;2024-03-02T10:27:06;29.05;;;23.48;;
64560;SDS011;50960;46.838;16.838;2024-03-02T10:29:36;28.38;;;22.45;;
64560;SDS011;50960;46.838;16.838;2024-03-02T10:32:04;28.60;;;22.45;;
64560;SDS011;50960;46.838;16.838;2024-03-02T10:34:32;26.92;;;21.90;;
64560;SDS011;50960;46.838;16.838;2024-03-02T10:36:58;27.25;;;21.23;;
64560;SDS011;50960;46.838;16.838;2024-03-02T10:39:26;30.40;;;22.73;;
64560;SDS011;50960;46.838;16.838;2024-03-02T10:41:52;28.25;;;22.15;;
64560;SDS011;50960;46.838;16.838;2024-03-02T10:44:19;27.88;;;21.85;;
64560;SDS011;50960;46.838;16.838;2024-03-02T10:46:46;26.52;;;20.23;;
64560;SDS011;50960;46.838;16.838;2024-03-02T10:49:13;26.08;;;20.38;;
64560;SDS011;50960;46.838;16.838;2024-03-02T10:51:40;24.65;;;20.77;;
64560;SDS011;50960;46.838;16.838;2024-03-02T10:54:06;26.17;;;20.10;;
64560;SDS011;50960;46.838;16.838;2024-03-02T10:56:33;27.90;;;21.05;;
64560;SDS011;50960;46.838;16.838;2024-03-02T10:59:21;24.35;;;18.55;;
64560;SDS011;50960;46.838;16.838;2024-03-02T11:01:50;25.60;;;19.52;;
64560;SDS011;50960;46.838;16.838;2024-03-02T11:04:20;24.23;;;19.52;;
64560;SDS011;50960;46.838;16.838;2024-03-02T11:06:48;25.40;;;21.20;;
64560;SDS011;50960;46.838;16.838;2024-03-02T11:09:16;24.25;;;19.77;;
64560;SDS011;50960;46.838;16.838;2024-03-02T11:11:44;27.17;;;20.88;;
64560;SDS011;50960;46.838;16.838;2024-03-02T11:14:13;26.10;;;20.80;;
64560;SDS011;50960;46.838;16.838;2024-03-02T11:16:40;28.40;;;21.60;;
64560;SDS011;50960;46.838;16.838;2024-03-02T11:19:10;26.73;;;20.92;;
64560;SDS011;50960;46.838;16.838;2024-03-02T11:21:38;26.10;;;21.00;;
64560;SDS011;50960;46.838;16.838;2024-03-02T11:26:50;25.05;;;20.67;;
64560;SDS011;50960;46.838;16.838;2024-03-02T11:32:02;25.65;;;20.02;;
64560;SDS011;50960;46.838;16.838;2024-03-02T11:34:33;26.63;;;20.90;;
64560;SDS011;50960;46.838;16.838;2024-03-02T11:37:03;24.58;;;19.33;;
64560;SDS011;50960;46.838;16.838;2024-03-02T11:39:30;24.27;;;19.60;;
64560;SDS011;50960;46.838;16.838;2024-03-02T11:41:57;24.40;;;18.88;;
64560;SDS011;50960;46.838;16.838;2024-03-02T11:44:24;25.15;;;18.45;;
64560;SDS011;50960;46.838;16.838;2024-03-02T11:47:00;26.85;;;20.67;;
64560;SDS011;50960;46.838;16.838;2024-03-02T11:49:40;23.90;;;16.58;;
64560;SDS011;50960;46.838;16.838;2024-03-02T11:52:08;28.60;;;21.45;;
64560;SDS011;50960;46.838;16.838;2024-03-02T11:54:35;20.25;;;15.63;;
64560;SDS011;50960;46.838;16.838;2024-03-02T11:57:05;22.77;;;16.67;;
64560;SDS011;50960;46.838;16.838;2024-03-02T11:59:32;25.98;;;20.30;;
64560;SDS011;50960;46.838;16.838;2024-03-02T12:01:59;27.08;;;21.85;;
64560;SDS011;50960;46.838;16.838;2024-03-02T12:04:26;24.33;;;18.40;;
64560;SDS011;50960;46.838;16.838;2024-03-02T12:06:56;25.10;;;19.15;;
64560;SDS011;50960;46.838;16.838;2024-03-02T12:09:25;25.35;;;20.90;;
64560;SDS011;50960;46.838;16.838;2024-03-02T12:12:01;26.55;;;21.13;;
64560;SDS011;50960;46.838;16.838;2024-03-02T12:14:29;27.67;;;21.52;;
64560;SDS011;50960;46.838;16.838;2024-03-02T12:16:56;26.42;;;19.83;;
64560;SDS011;50960;46.838;16.838;2024-03-02T12:19:24;24.00;;;18.75;;
64560;SDS011;50960;46.838;16.838;2024-03-02T12:21:52;25.35;;;19.80;;
64560;SDS011;50960;46.838;16.838;2024-03-02T12:24:18;25.83;;;19.95;;
64560;SDS011;50960;46.838;16.838;2024-03-02T12:26:45;26.25;;;20.38;;
64560;SDS011;50960;46.838;16.838;2024-03-02T12:29:13;29.63;;;20.58;;
64560;SDS011;50960;46.838;16.838;2024-03-02T12:31:41;26.42;;;20.17;;
64560;SDS011;50960;46.838;16.838;2024-03-02T12:34:12;26.98;;;21.05;;
64560;SDS011;50960;46.838;16.838;2024-03-02T12:36:39;25.55;;;20.52;;
64560;SDS011;50960;46.838;16.838;2024-03-02T12:39:10;25.95;;;19.10;;
64560;SDS011;50960;46.838;16.838;2024-03-02T12:41:36;24.75;;;17.95;;
64560;SDS011;50960;46.838;16.838;2024-03-02T12:44:04;25.08;;;18.90;;
64560;SDS011;50960;46.838;16.838;2024-03-02T12:46:31;25.52;;;19.70;;
64560;SDS011;50960;46.838;16.838;2024-03-02T12:49:05;25.55;;;19.70;;
64560;SDS011;50960;46.838;16.838;2024-03-02T12:51:33;24.45;;;18.95;;
64560;SDS011;50960;46.838;16.838;2024-03-02T12:54:00;25.48;;;19.50;;
64560;SDS011;50960;46.838;16.838;2024-03-02T12:56:27;24.30;;;17.88;;
64560;SDS011;50960;46.838;16.838;2024-03-02T12:58:54;25.98;;;19.23;;
64560;SDS011;50960;46.838;16.838;2024-03-02T13:01:20;26.52;;;19.50;;
64560;SDS011;50960;46.838;16.838;2024-03-02T13:03:50;24.13;;;18.50;;
64560;SDS011;50960;46.838;16.838;2024-03-02T13:06:18;25.27;;;19.58;;
64560;SDS011;50960;46.838;16.838;2024-03-02T13:08:45;20.77;;;17.13;;
64560;SDS011;50960;46.838;16.838;2024-03-02T13:11:15;21.25;;;16.90;;
64560;SDS011;50960;46.838;16.838;2024-03-02T13:13:42;20.73;;;14.27;;
64560;SDS011;50960;46.838;16.838;2024-03-02T13:16:14;19.88;;;16.77;;
64560;SDS011;50960;46.838;16.838;2024-03-02T13:18:41;20.65;;;16.38;;
64560;SDS011;50960;46.838;16.838;2024-03-02T13:21:08;21.48;;;17.20;;
64560;SDS011;50960;46.838;16.838;2024-03-02T13:23:35;20.98;;;16.25;;
64560;SDS011;50960;46.838;16.838;2024-03-02T13:26:02;22.08;;;18.23;;
64560;SDS011;50960;46.838;16.838;2024-03-02T13:28:28;20.23;;;16.92;;
64560;SDS011;50960;46.838;16.838;2024-03-02T13:30:55;21.95;;;17.58;;
64560;SDS011;50960;46.838;16.838;2024-03-02T13:33:21;19.98;;;17.00;;
64560;SDS011;50960;46.838;16.838;2024-03-02T13:35:49;20.35;;;15.57;;
64560;SDS011;50960;46.838;16.838;2024-03-02T13:38:18;20.63;;;16.52;;
64560;SDS011;50960;46.838;16.838;2024-03-02T13:40:45;22.52;;;17.92;;
64560;SDS011;50960;46.838;16.838;2024-03-02T13:43:12;20.60;;;16.15;;
64560;SDS011;50960;46.838;16.838;2024-03-02T13:45:39;19.77;;;15.43;;
64560;SDS011;50960;46.838;16.838;2024-03-02T13:48:05;19.70;;;15.18;;
64560;SDS011;50960;46.838;16.838;2024-03-02T13:50:32;18.85;;;14.55;;
64560;SDS011;50960;46.838;16.838;2024-03-02T13:52:58;21.08;;;16.58;;
64560;SDS011;50960;46.838;16.838;2024-03-02T13:55:25;23.23;;;17.67;;
64560;SDS011;50960;46.838;16.838;2024-03-02T13:57:51;20.65;;;16.65;;
64560;SDS011;50960;46.838;16.838;2024-03-02T14:00:18;21.98;;;16.73;;
64560;SDS011;50960;46.838;16.838;2024-03-02T14:02:48;20.23;;;16.88;;
64560;SDS011;50960;46.838;16.838;2024-03-02T14:05:15;20.58;;;14.88;;
64560;SDS011;50960;46.838;16.838;2024-03-02T14:07:42;16.25;;;14.50;;
64560;SDS011;50960;46.838;16.838;2024-03-02T14:10:09;19.20;;;15.07;;
64560;SDS011;50960;46.838;16.838;2024-03-02T14:12:36;19.98;;;15.70;;
64560;SDS011;50960;46.838;16.838;2024-03-02T14:15:03;19.15;;;16.80;;
64560;SDS011;50960;46.838;16.838;2024-03-02T14:17:29;14.80;;;12.07;;
64560;SDS011;50960;46.838;16.838;2024-03-02T14:19:57;13.90;;;11.35;;
64560;SDS011;50960;46.838;16.838;2024-03-02T14:22:27;15.68;;;11.55;;
64560;SDS011;50960;46.838;16.838;2024-03-02T14:24:53;14.35;;;12.13;;
64560;SDS011;50960;46.838;16.838;2024-03-02T14:27:19;15.65;;;13.05;;